Time;durP1;ratioP1;P1;durP2;ratioP2;P2;SDS_P1;SDS_P2;PMS_P1;PMS_P2;Temp;Humidity;BMP_temperature;BMP_pressure;BME280_temperature;BME280_humidity;BME280_pressure;Samples;Min_cycle;Max_cycle;Signal;HPM_P1;HPM_P2
2022/12/02 00:00:54;;;;;;;13.15;7.55;;;;;;;;;;5048755;28;20029;-75
2022/12/02 00:03:22;;;;;;;14.13;7.30;;;;;;;;;;5048600;28;20029;-74
2022/12/02 00:05:50;;;;;;;14.07;8.00;;;;;;;;;;5048470;28;20025;-75
2022/12/02 00:08:21;;;;;;;12.55;6.82;;;;;;;;;;5048212;28;20500;-75
2022/12/02 00:10:48;;;;;;;13.98;7.45;;;;;;;;;;5048396;28;20029;-75
2022/12/02 00:13:25;;;;;;;12.15;7.03;;;;;;;;;;5048472;28;20037;-75
2022/12/02 00:16:01;;;;;;;13.00;6.95;;;;;;;;;;5050773;28;20032;-75
2022/12/02 00:18:27;;;;;;;13.00;6.97;;;;;;;;;;5054572;28;20324;-75
2022/12/02 00:20:53;;;;;;;12.52;6.50;;;;;;;;;;5055072;28;20025;-75
2022/12/02 00:23:18;;;;;;;13.05;6.97;;;;;;;;;;5055435;28;20037;-75
2022/12/02 00:25:48;;;;;;;15.00;7.32;;;;;;;;;;5051437;28;20033;-76
2022/12/02 00:28:14;;;;;;;12.90;7.28;;;;;;;;;;5052338;28;20036;-75
2022/12/02 00:30:40;;;;;;;14.05;7.05;;;;;;;;;;5056205;28;20085;-75
2022/12/02 00:33:06;;;;;;;13.27;7.45;;;;;;;;;;5051917;28;20044;-75
2022/12/02 00:35:31;;;;;;;17.00;7.82;;;;;;;;;;5050283;28;20028;-75
2022/12/02 00:37:57;;;;;;;14.50;7.63;;;;;;;;;;5047912;28;20129;-75
2022/12/02 00:40:22;;;;;;;13.77;7.78;;;;;;;;;;5050831;28;20025;-75
2022/12/02 00:42:48;;;;;;;13.65;7.65;;;;;;;;;;5047893;28;20436;-75
2022/12/02 00:47:58;;;;;;;14.43;8.05;;;;;;;;;;5048115;28;20032;-75
2022/12/02 00:50:23;;;;;;;14.75;7.70;;;;;;;;;;5049975;28;20029;-75
2022/12/02 00:52:49;;;;;;;14.57;7.82;;;;;;;;;;5047409;28;20498;-75
2022/12/02 00:55:15;;;;;;;14.93;7.68;;;;;;;;;;5049505;28;20112;-76
2022/12/02 00:57:40;;;;;;;15.77;7.55;;;;;;;;;;5048263;28;20037;-75
2022/12/02 01:00:07;;;;;;;15.73;8.68;;;;;;;;;;5054505;28;20036;-75
2022/12/02 01:02:32;;;;;;;15.55;8.32;;;;;;;;;;5053939;28;20097;-75
2022/12/02 01:04:58;;;;;;;17.55;8.98;;;;;;;;;;5052612;28;20347;-75
2022/12/02 01:07:23;;;;;;;15.82;8.00;;;;;;;;;;5053219;28;20096;-76
2022/12/02 01:09:49;;;;;;;16.30;8.48;;;;;;;;;;5051995;28;20029;-76
2022/12/02 01:12:14;;;;;;;15.52;8.25;;;;;;;;;;5049034;28;20037;-76
2022/12/02 01:14:40;;;;;;;15.80;8.00;;;;;;;;;;5053649;28;20116;-76
2022/12/02 01:17:05;;;;;;;16.67;7.72;;;;;;;;;;5048945;28;20562;-75
2022/12/02 01:19:31;;;;;;;17.10;8.63;;;;;;;;;;5055622;28;20028;-76
2022/12/02 01:21:56;;;;;;;17.25;8.55;;;;;;;;;;5052144;28;20224;-75
2022/12/02 01:24:22;;;;;;;16.92;8.55;;;;;;;;;;5052224;28;20036;-76
2022/12/02 01:26:47;;;;;;;16.05;8.38;;;;;;;;;;5053988;28;20032;-75
2022/12/02 01:29:12;;;;;;;14.50;8.18;;;;;;;;;;5052529;28;20029;-75
2022/12/02 01:31:38;;;;;;;16.10;8.52;;;;;;;;;;5050160;28;20121;-76
2022/12/02 01:34:03;;;;;;;16.95;8.38;;;;;;;;;;5049809;28;20056;-76
2022/12/02 01:36:28;;;;;;;14.73;8.02;;;;;;;;;;5053608;27;20073;-75
2022/12/02 01:38:54;;;;;;;18.17;9.88;;;;;;;;;;5053245;28;20515;-75
2022/12/02 01:41:19;;;;;;;17.58;8.75;;;;;;;;;;5048940;28;20029;-74
2022/12/02 01:43:45;;;;;;;18.65;9.20;;;;;;;;;;5054312;28;20032;-75
2022/12/02 01:46:11;;;;;;;17.52;8.43;;;;;;;;;;5052072;28;20096;-75
2022/12/02 01:48:36;;;;;;;18.20;8.60;;;;;;;;;;5051196;28;20032;-75
2022/12/02 01:51:04;;;;;;;18.58;8.63;;;;;;;;;;5051583;28;20025;-75
2022/12/02 01:53:29;;;;;;;17.65;9.15;;;;;;;;;;5047561;28;20033;-75
2022/12/02 01:55:55;;;;;;;17.48;8.77;;;;;;;;;;5052867;28;20069;-75
2022/12/02 01:58:25;;;;;;;15.18;8.05;;;;;;;;;;5049213;28;20036;-75
2022/12/02 02:00:52;;;;;;;17.63;8.95;;;;;;;;;;5051688;28;20365;-75
2022/12/02 02:03:18;;;;;;;19.38;9.68;;;;;;;;;;5046915;28;20029;-75
2022/12/02 02:05:43;;;;;;;16.30;8.55;;;;;;;;;;5046834;28;20048;-75
2022/12/02 02:08:11;;;;;;;16.27;8.50;;;;;;;;;;5046923;28;20024;-75
2022/12/02 02:10:38;;;;;;;17.90;8.55;;;;;;;;;;5047186;28;20100;-75
2022/12/02 02:13:06;;;;;;;15.90;8.30;;;;;;;;;;5050202;28;20092;-75
2022/12/02 02:15:31;;;;;;;19.35;9.48;;;;;;;;;;5049113;28;20045;-75
2022/12/02 02:17:57;;;;;;;18.38;9.35;;;;;;;;;;5048348;28;20029;-74
2022/12/02 02:20:24;;;;;;;17.73;8.95;;;;;;;;;;5046716;28;20437;-74
2022/12/02 02:23:08;;;;;;;20.83;9.32;;;;;;;;;;5046592;28;20025;-74
2022/12/02 02:25:39;;;;;;;18.23;8.95;;;;;;;;;;5051861;28;20389;-74
2022/12/02 02:28:05;;;;;;;20.15;9.82;;;;;;;;;;5045113;28;20109;-75
2022/12/02 02:30:32;;;;;;;19.15;9.43;;;;;;;;;;5046263;28;20070;-74
2022/12/02 02:33:00;;;;;;;19.27;9.43;;;;;;;;;;5046605;28;20105;-74
2022/12/02 02:35:26;;;;;;;18.58;9.15;;;;;;;;;;5047700;28;20017;-74
2022/12/02 02:37:54;;;;;;;18.13;9.10;;;;;;;;;;5052819;28;20082;-74
2022/12/02 02:40:21;;;;;;;20.90;9.75;;;;;;;;;;5049893;28;20357;-74
2022/12/02 02:42:51;;;;;;;19.70;9.55;;;;;;;;;;5053557;28;20219;-73
2022/12/02 02:45:19;;;;;;;16.83;9.27;;;;;;;;;;5052735;28;20036;-75
2022/12/02 02:47:45;;;;;;;19.90;10.40;;;;;;;;;;5052792;28;20048;-75
2022/12/02 02:50:10;;;;;;;21.42;9.65;;;;;;;;;;5058876;28;20021;-75
2022/12/02 02:52:36;;;;;;;19.25;9.52;;;;;;;;;;5056547;28;20288;-74
2022/12/02 02:55:03;;;;;;;18.05;9.07;;;;;;;;;;5053894;28;20457;-74
2022/12/02 02:57:28;;;;;;;19.38;9.05;;;;;;;;;;5053257;28;20025;-74
2022/12/02 02:59:55;;;;;;;18.70;9.73;;;;;;;;;;5049480;28;20426;-74
2022/12/02 03:02:22;;;;;;;17.88;9.07;;;;;;;;;;5051962;28;20035;-74
2022/12/02 03:04:48;;;;;;;17.90;9.15;;;;;;;;;;5052851;28;20056;-74
2022/12/02 03:07:14;;;;;;;20.05;9.07;;;;;;;;;;5052696;28;20028;-74
2022/12/02 03:09:40;;;;;;;19.05;9.02;;;;;;;;;;5057357;28;20303;-74
2022/12/02 03:12:06;;;;;;;17.75;8.68;;;;;;;;;;5055436;28;20112;-74
2022/12/02 03:14:31;;;;;;;18.90;9.32;;;;;;;;;;5050736;28;20032;-74
2022/12/02 03:16:59;;;;;;;16.00;8.73;;;;;;;;;;5050367;28;20108;-74
2022/12/02 03:19:24;;;;;;;18.27;8.63;;;;;;;;;;5053020;28;20025;-74
2022/12/02 03:21:50;;;;;;;20.60;9.60;;;;;;;;;;5054885;28;20250;-74
2022/12/02 03:24:16;;;;;;;17.98;9.15;;;;;;;;;;5056812;28;20028;-75
2022/12/02 03:26:42;;;;;;;18.50;8.30;;;;;;;;;;5053236;28;20029;-75
2022/12/02 03:29:09;;;;;;;20.60;9.23;;;;;;;;;;5050697;28;20076;-75
2022/12/02 03:31:35;;;;;;;19.63;9.52;;;;;;;;;;5049612;28;20484;-74
2022/12/02 03:34:00;;;;;;;17.85;9.10;;;;;;;;;;5054767;28;20035;-74
2022/12/02 03:36:26;;;;;;;21.60;9.50;;;;;;;;;;5051352;28;20025;-74
2022/12/02 03:38:52;;;;;;;20.95;9.60;;;;;;;;;;5049482;28;20021;-74
2022/12/02 03:41:18;;;;;;;20.63;9.70;;;;;;;;;;5055968;28;20228;-74
2022/12/02 03:43:43;;;;;;;17.50;8.82;;;;;;;;;;5054842;28;20025;-75
2022/12/02 03:46:09;;;;;;;19.58;9.40;;;;;;;;;;5049034;28;20021;-74
2022/12/02 03:48:38;;;;;;;17.38;8.82;;;;;;;;;;5052663;28;20033;-74
2022/12/02 03:51:04;;;;;;;19.08;9.05;;;;;;;;;;5054307;28;20021;-74
2022/12/02 03:53:30;;;;;;;18.38;8.65;;;;;;;;;;5049772;28;20415;-74
2022/12/02 03:55:56;;;;;;;20.17;9.13;;;;;;;;;;5048675;28;20525;-75
2022/12/02 03:58:32;;;;;;;18.42;9.02;;;;;;;;;;5048572;28;20021;-74
2022/12/02 04:00:58;;;;;;;18.65;8.93;;;;;;;;;;5048675;28;20029;-74
2022/12/02 04:03:23;;;;;;;19.98;9.05;;;;;;;;;;5048874;28;20108;-74
2022/12/02 04:05:49;;;;;;;19.00;8.88;;;;;;;;;;5048706;28;20032;-74
2022/12/02 04:08:14;;;;;;;18.48;9.00;;;;;;;;;;5048657;28;20032;-75
2022/12/02 04:10:39;;;;;;;19.23;9.15;;;;;;;;;;5054534;28;20035;-74
2022/12/02 04:13:05;;;;;;;18.85;8.50;;;;;;;;;;5048280;28;20056;-74
2022/12/02 04:15:30;;;;;;;17.73;8.25;;;;;;;;;;5048801;28;20021;-74
2022/12/02 04:17:55;;;;;;;20.25;9.80;;;;;;;;;;5048660;28;20452;-74
2022/12/02 04:20:21;;;;;;;23.05;10.32;;;;;;;;;;5048378;28;20101;-74
2022/12/02 04:22:46;;;;;;;21.67;10.80;;;;;;;;;;5048252;28;20124;-74
2022/12/02 04:25:11;;;;;;;17.95;9.13;;;;;;;;;;5048407;28;20032;-74
2022/12/02 04:27:37;;;;;;;20.23;9.90;;;;;;;;;;5048206;28;20421;-73
2022/12/02 04:30:03;;;;;;;18.05;8.93;;;;;;;;;;5048055;28;20101;-74
2022/12/02 04:32:28;;;;;;;18.08;9.02;;;;;;;;;;5048169;28;20036;-74
2022/12/02 04:34:54;;;;;;;19.27;8.85;;;;;;;;;;5048244;28;20035;-75
2022/12/02 04:37:19;;;;;;;19.42;9.30;;;;;;;;;;5048619;28;20033;-75
2022/12/02 04:39:44;;;;;;;20.30;9.90;;;;;;;;;;5052594;28;20032;-74
2022/12/02 04:42:10;;;;;;;17.08;8.40;;;;;;;;;;5050846;28;20033;-75
2022/12/02 04:44:35;;;;;;;18.60;9.05;;;;;;;;;;5055478;28;20033;-75
2022/12/02 04:47:00;;;;;;;17.90;8.95;;;;;;;;;;5049818;28;20060;-75
2022/12/02 04:49:26;;;;;;;16.95;8.30;;;;;;;;;;5047839;28;20029;-75
2022/12/02 04:51:51;;;;;;;15.73;8.27;;;;;;;;;;5047531;28;20041;-75
2022/12/02 04:54:16;;;;;;;17.90;9.02;;;;;;;;;;5048000;28;20025;-75
2022/12/02 04:56:42;;;;;;;18.55;8.70;;;;;;;;;;5051217;28;20488;-75
2022/12/02 04:59:07;;;;;;;17.02;8.68;;;;;;;;;;5047749;28;20025;-74
2022/12/02 05:01:33;;;;;;;17.88;8.30;;;;;;;;;;5047948;28;20048;-74
2022/12/02 05:03:58;;;;;;;22.13;10.02;;;;;;;;;;5046756;28;20065;-74
2022/12/02 05:06:23;;;;;;;17.42;8.57;;;;;;;;;;5048212;28;20051;-74
2022/12/02 05:08:49;;;;;;;16.63;8.52;;;;;;;;;;5049870;28;20138;-74
2022/12/02 05:11:14;;;;;;;16.50;8.68;;;;;;;;;;5052437;28;20088;-74
2022/12/02 05:13:40;;;;;;;19.08;8.80;;;;;;;;;;5051084;28;20036;-74
2022/12/02 05:16:06;;;;;;;15.95;8.00;;;;;;;;;;5051642;28;20105;-76
2022/12/02 05:18:31;;;;;;;16.20;8.30;;;;;;;;;;5052905;28;20514;-75
2022/12/02 05:20:56;;;;;;;18.35;8.63;;;;;;;;;;5048650;28;20064;-74
2022/12/02 05:23:22;;;;;;;17.13;8.52;;;;;;;;;;5047791;28;20025;-75
2022/12/02 05:25:48;;;;;;;15.63;8.13;;;;;;;;;;5049097;28;20056;-75
2022/12/02 05:28:13;;;;;;;17.08;8.18;;;;;;;;;;5047581;28;20044;-74
2022/12/02 05:30:39;;;;;;;14.20;7.15;;;;;;;;;;5049242;28;20365;-74
2022/12/02 05:33:04;;;;;;;14.40;7.43;;;;;;;;;;5049172;28;20495;-74
2022/12/02 05:35:29;;;;;;;17.23;7.18;;;;;;;;;;5047923;28;20073;-74
2022/12/02 05:37:55;;;;;;;14.13;7.80;;;;;;;;;;5048967;28;20496;-74
2022/12/02 05:40:20;;;;;;;16.65;7.80;;;;;;;;;;5047001;28;20104;-75
2022/12/02 05:42:46;;;;;;;14.77;8.10;;;;;;;;;;5046993;28;20025;-74
2022/12/02 05:45:19;;;;;;;16.48;7.68;;;;;;;;;;5047263;28;20029;-74
2022/12/02 05:47:51;;;;;;;17.30;7.93;;;;;;;;;;5047003;28;20648;-73
2022/12/02 05:50:17;;;;;;;18.45;7.82;;;;;;;;;;5046925;28;20025;-73
2022/12/02 05:52:43;;;;;;;18.77;7.63;;;;;;;;;;5046820;28;20041;-74
2022/12/02 05:55:14;;;;;;;15.60;7.57;;;;;;;;;;5046998;28;20080;-74
2022/12/02 05:57:41;;;;;;;17.33;7.97;;;;;;;;;;5046630;28;20369;-74
2022/12/02 06:00:22;;;;;;;16.95;8.55;;;;;;;;;;5048284;28;20033;-74
2022/12/02 06:02:57;;;;;;;15.80;7.72;;;;;;;;;;5052322;28;20161;-74
2022/12/02 06:05:26;;;;;;;16.23;8.70;;;;;;;;;;5049360;28;20225;-74
2022/12/02 06:07:55;;;;;;;18.65;9.20;;;;;;;;;;5054278;28;20052;-74
2022/12/02 06:10:25;;;;;;;18.27;8.93;;;;;;;;;;5052140;28;20102;-75
2022/12/02 06:12:53;;;;;;;17.67;9.13;;;;;;;;;;5047255;28;20029;-75
2022/12/02 06:15:18;;;;;;;21.33;10.32;;;;;;;;;;5049308;28;20078;-75
2022/12/02 06:17:44;;;;;;;21.98;10.68;;;;;;;;;;5050463;28;20021;-75
2022/12/02 06:20:19;;;;;;;19.30;10.45;;;;;;;;;;5050747;28;20052;-74
2022/12/02 06:22:45;;;;;;;25.17;11.45;;;;;;;;;;5050937;28;20673;-74
2022/12/02 06:25:28;;;;;;;22.08;11.27;;;;;;;;;;5055579;28;20033;-74
2022/12/02 06:28:21;;;;;;;22.42;10.93;;;;;;;;;;5050759;28;20031;-75
2022/12/02 06:30:47;;;;;;;19.52;9.52;;;;;;;;;;5055412;28;20040;-76
2022/12/02 06:33:23;;;;;;;17.65;8.65;;;;;;;;;;5052026;28;20072;-76
2022/12/02 06:35:49;;;;;;;17.17;8.73;;;;;;;;;;5051357;28;20025;-75
2022/12/02 06:38:26;;;;;;;19.80;9.38;;;;;;;;;;5051410;28;20401;-76
2022/12/02 06:40:51;;;;;;;20.75;10.20;;;;;;;;;;5049980;28;20021;-73
2022/12/02 06:43:24;;;;;;;18.45;9.25;;;;;;;;;;5057360;28;20029;-73
2022/12/02 06:45:49;;;;;;;19.52;9.60;;;;;;;;;;5056042;28;20033;-73
2022/12/02 06:48:31;;;;;;;18.60;9.45;;;;;;;;;;5053564;28;20378;-73
2022/12/02 06:51:18;;;;;;;19.85;8.85;;;;;;;;;;5051133;28;20522;-73
2022/12/02 06:53:44;;;;;;;17.08;8.82;;;;;;;;;;5049909;28;20053;-73
2022/12/02 06:56:16;;;;;;;19.52;8.95;;;;;;;;;;5048375;28;20025;-73
2022/12/02 06:58:53;;;;;;;18.33;9.23;;;;;;;;;;5049471;28;20021;-73
2022/12/02 07:01:37;;;;;;;20.00;9.23;;;;;;;;;;5056164;28;20375;-73
2022/12/02 07:04:08;;;;;;;16.90;8.55;;;;;;;;;;5056243;28;20089;-73
2022/12/02 07:06:39;;;;;;;19.85;9.02;;;;;;;;;;5059473;28;20078;-75
2022/12/02 07:09:15;;;;;;;18.95;8.80;;;;;;;;;;5054124;28;20028;-74
2022/12/02 07:11:50;;;;;;;17.70;9.02;;;;;;;;;;5049239;28;20037;-74
2022/12/02 07:14:39;;;;;;;18.35;8.50;;;;;;;;;;5049346;28;20059;-76
2022/12/02 07:17:28;;;;;;;17.63;8.88;;;;;;;;;;5057823;28;20033;-73
2022/12/02 07:19:56;;;;;;;18.23;8.80;;;;;;;;;;5057475;28;20036;-73
2022/12/02 07:22:30;;;;;;;18.25;8.93;;;;;;;;;;5059256;28;20055;-73
2022/12/02 07:25:23;;;;;;;17.33;9.00;;;;;;;;;;5056938;28;20049;-73
2022/12/02 07:27:50;;;;;;;16.17;8.20;;;;;;;;;;5057280;28;20126;-73
2022/12/02 07:30:32;;;;;;;17.65;8.77;;;;;;;;;;5052462;28;20480;-74
2022/12/02 07:32:58;;;;;;;18.23;9.00;;;;;;;;;;5051443;28;20029;-75
2022/12/02 07:35:24;;;;;;;16.95;8.93;;;;;;;;;;5055723;28;20270;-74
2022/12/02 07:37:50;;;;;;;18.60;9.18;;;;;;;;;;5055561;28;20040;-73
2022/12/02 07:40:16;;;;;;;17.90;9.05;;;;;;;;;;5058725;28;20331;-74
2022/12/02 07:42:42;;;;;;;21.02;9.10;;;;;;;;;;5052984;27;20033;-74
2022/12/02 07:45:13;;;;;;;17.92;8.65;;;;;;;;;;5057294;28;20029;-73
2022/12/02 07:47:38;;;;;;;19.83;9.63;;;;;;;;;;5049829;28;20037;-73
2022/12/02 07:50:05;;;;;;;17.63;9.45;;;;;;;;;;5049074;28;20028;-73
2022/12/02 07:52:30;;;;;;;20.45;9.30;;;;;;;;;;5057754;28;20146;-73
2022/12/02 07:54:55;;;;;;;19.92;9.45;;;;;;;;;;5060101;28;20029;-72
2022/12/02 07:57:21;;;;;;;20.35;9.27;;;;;;;;;;5059604;28;20073;-73
2022/12/02 07:59:47;;;;;;;17.98;9.70;;;;;;;;;;5059747;28;20045;-73
2022/12/02 08:02:12;;;;;;;18.30;9.63;;;;;;;;;;5057435;28;20228;-74
2022/12/02 08:04:38;;;;;;;17.42;8.75;;;;;;;;;;5058803;28;20029;-72
2022/12/02 08:07:03;;;;;;;19.70;9.43;;;;;;;;;;5058673;28;20248;-76
2022/12/02 08:09:29;;;;;;;19.77;9.30;;;;;;;;;;5058091;27;20233;-74
2022/12/02 08:11:54;;;;;;;21.15;10.68;;;;;;;;;;5059162;28;20085;-73
2022/12/02 08:14:20;;;;;;;21.08;10.18;;;;;;;;;;5058204;28;20041;-77
2022/12/02 08:16:45;;;;;;;19.73;9.73;;;;;;;;;;5058986;28;20036;-74
2022/12/02 08:19:11;;;;;;;19.60;9.65;;;;;;;;;;5058004;28;20040;-73
2022/12/02 08:21:39;;;;;;;18.58;9.02;;;;;;;;;;5057506;28;20033;-75
2022/12/02 08:24:05;;;;;;;19.83;9.80;;;;;;;;;;5058909;28;20036;-75
2022/12/02 08:26:30;;;;;;;22.15;9.30;;;;;;;;;;5059531;28;20130;-85
2022/12/02 08:28:56;;;;;;;22.70;10.40;;;;;;;;;;5059196;28;20024;-77
2022/12/02 08:31:21;;;;;;;21.15;10.15;;;;;;;;;;5059378;28;20036;-75
2022/12/02 08:33:47;;;;;;;27.02;11.25;;;;;;;;;;5058990;28;20063;-77
2022/12/02 08:36:14;;;;;;;24.33;10.95;;;;;;;;;;5058921;28;20235;-74
2022/12/02 08:38:40;;;;;;;18.58;9.63;;;;;;;;;;5058315;28;20033;-74
2022/12/02 08:41:05;;;;;;;22.42;9.93;;;;;;;;;;5058687;28;20029;-74
2022/12/02 08:43:31;;;;;;;19.88;10.43;;;;;;;;;;5058233;28;20312;-74
2022/12/02 08:45:56;;;;;;;19.15;9.75;;;;;;;;;;5092046;27;20108;-73
2022/12/02 08:48:22;;;;;;;21.30;10.98;;;;;;;;;;5058888;28;20032;-73
2022/12/02 08:50:47;;;;;;;19.58;9.35;;;;;;;;;;5058640;28;20261;-74
2022/12/02 08:53:13;;;;;;;19.30;9.38;;;;;;;;;;5058432;28;20358;-73
2022/12/02 08:55:38;;;;;;;21.65;11.10;;;;;;;;;;5058877;28;20333;-74
2022/12/02 08:58:04;;;;;;;19.98;10.20;;;;;;;;;;5058683;28;20092;-74
2022/12/02 09:00:29;;;;;;;19.33;9.77;;;;;;;;;;5057857;28;20405;-72
2022/12/02 09:02:55;;;;;;;20.98;10.20;;;;;;;;;;5058734;28;20032;-73
2022/12/02 09:05:20;;;;;;;19.90;9.88;;;;;;;;;;5058942;28;20071;-73
2022/12/02 09:07:46;;;;;;;18.38;9.65;;;;;;;;;;5059385;27;20021;-74
2022/12/02 09:10:13;;;;;;;19.35;10.23;;;;;;;;;;5138428;27;20364;-74
2022/12/02 09:12:38;;;;;;;22.00;9.85;;;;;;;;;;5058316;28;20032;-74
2022/12/02 09:15:04;;;;;;;25.67;10.52;;;;;;;;;;5058917;28;20040;-74
2022/12/02 09:17:30;;;;;;;23.52;10.65;;;;;;;;;;5078075;27;20067;-75
2022/12/02 09:19:55;;;;;;;21.50;10.75;;;;;;;;;;5064358;27;20017;-74
2022/12/02 09:22:20;;;;;;;20.30;11.05;;;;;;;;;;5058615;28;20413;-74
2022/12/02 09:24:46;;;;;;;22.73;10.73;;;;;;;;;;5058589;28;20246;-74
2022/12/02 09:27:11;;;;;;;22.25;10.55;;;;;;;;;;5057366;28;20085;-74
2022/12/02 09:29:37;;;;;;;18.38;10.02;;;;;;;;;;5057447;28;20093;-74
2022/12/02 09:32:03;;;;;;;17.83;9.75;;;;;;;;;;5057300;28;20033;-74
2022/12/02 09:34:28;;;;;;;19.23;10.18;;;;;;;;;;5056891;28;20029;-74
2022/12/02 09:36:54;;;;;;;21.90;10.50;;;;;;;;;;5055880;28;20028;-73
2022/12/02 09:39:19;;;;;;;23.15;10.18;;;;;;;;;;5055694;28;20213;-72
2022/12/02 09:41:44;;;;;;;19.05;10.23;;;;;;;;;;5058441;28;20061;-77
2022/12/02 09:44:10;;;;;;;17.70;9.88;;;;;;;;;;5055386;28;20037;-74
2022/12/02 09:46:36;;;;;;;21.27;10.23;;;;;;;;;;5055222;28;20025;-76
2022/12/02 09:49:02;;;;;;;28.63;14.32;;;;;;;;;;5056478;28;20108;-75
2022/12/02 09:51:27;;;;;;;26.42;12.38;;;;;;;;;;5056380;28;20024;-77
2022/12/02 09:53:53;;;;;;;24.73;11.85;;;;;;;;;;5055441;28;20029;-76
2022/12/02 09:56:20;;;;;;;22.83;11.73;;;;;;;;;;5055802;28;20084;-75
2022/12/02 09:58:51;;;;;;;22.05;11.15;;;;;;;;;;5055394;28;20021;-76
2022/12/02 10:01:16;;;;;;;21.38;11.15;;;;;;;;;;5055794;28;20069;-76
2022/12/02 10:03:44;;;;;;;26.90;12.60;;;;;;;;;;5055050;28;20037;-77
2022/12/02 10:06:23;;;;;;;28.02;13.63;;;;;;;;;;5055457;28;20056;-76
2022/12/02 10:08:50;;;;;;;23.45;11.63;;;;;;;;;;5054517;28;20048;-75
2022/12/02 10:11:27;;;;;;;32.63;14.52;;;;;;;;;;5056840;28;20044;-76
2022/12/02 10:13:55;;;;;;;24.30;11.95;;;;;;;;;;5055703;28;20100;-76
2022/12/02 10:16:21;;;;;;;23.83;11.10;;;;;;;;;;5056291;28;20173;-76
2022/12/02 10:18:47;;;;;;;20.58;10.52;;;;;;;;;;5056636;28;20301;-76
2022/12/02 10:21:13;;;;;;;21.48;10.90;;;;;;;;;;5056443;28;20078;-76
2022/12/02 10:24:04;;;;;;;23.48;11.18;;;;;;;;;;5056270;28;20041;-76
2022/12/02 10:26:48;;;;;;;20.23;10.15;;;;;;;;;;5056301;28;20056;-76
2022/12/02 10:29:16;;;;;;;20.15;11.25;;;;;;;;;;5056839;28;20068;-76
2022/12/02 10:31:52;;;;;;;21.05;11.30;;;;;;;;;;5056088;28;20339;-76
2022/12/02 10:34:20;;;;;;;19.73;10.98;;;;;;;;;;5056648;28;20250;-76
2022/12/02 10:36:47;;;;;;;20.23;10.73;;;;;;;;;;5056325;28;20032;-76
2022/12/02 10:39:23;;;;;;;22.67;11.32;;;;;;;;;;5056143;28;20022;-76
2022/12/02 10:42:04;;;;;;;20.55;10.65;;;;;;;;;;5056474;28;20072;-75
2022/12/02 10:44:32;;;;;;;47.92;12.50;;;;;;;;;;5056302;28;20036;-76
2022/12/02 10:47:20;;;;;;;35.15;11.10;;;;;;;;;;5055552;28;20093;-77
2022/12/02 10:49:57;;;;;;;23.42;10.10;;;;;;;;;;5057270;28;20084;-76
2022/12/02 10:52:27;;;;;;;19.90;9.95;;;;;;;;;;5056128;28;20289;-77
2022/12/02 10:54:55;;;;;;;21.90;10.10;;;;;;;;;;5056065;28;20253;-77
2022/12/02 10:57:24;;;;;;;22.13;10.52;;;;;;;;;;5056778;28;20092;-76
2022/12/02 10:59:52;;;;;;;21.02;10.27;;;;;;;;;;5056293;28;20055;-76
2022/12/02 11:02:42;;;;;;;20.85;10.23;;;;;;;;;;5056451;28;20106;-76
2022/12/02 11:05:20;;;;;;;23.48;11.07;;;;;;;;;;5059271;28;20021;-76
2022/12/02 11:08:05;;;;;;;24.55;12.23;;;;;;;;;;5059655;28;20029;-76
2022/12/02 11:10:36;;;;;;;24.38;11.77;;;;;;;;;;5059890;27;20271;-77
2022/12/02 11:13:04;;;;;;;24.10;10.85;;;;;;;;;;5059216;28;20040;-76
2022/12/02 11:16:15;;;;;;;24.80;10.90;;;;;;;;;;5058098;28;20546;-76
2022/12/02 11:18:54;;;;;;;23.02;10.30;;;;;;;;;;5058921;27;20040;-76
2022/12/02 11:21:26;;;;;;;25.33;10.95;;;;;;;;;;5059236;28;20029;-77
2022/12/02 11:24:22;;;;;;;21.17;10.98;;;;;;;;;;5059303;28;20040;-77
2022/12/02 11:27:01;;;;;;;23.15;11.18;;;;;;;;;;5059145;28;20071;-76
2022/12/02 11:29:36;;;;;;;21.98;10.30;;;;;;;;;;5059292;28;20037;-75
2022/12/02 11:32:25;;;;;;;27.73;11.15;;;;;;;;;;5059124;28;20089;-76
2022/12/02 11:34:52;;;;;;;23.90;11.27;;;;;;;;;;5057802;28;20401;-77
2022/12/02 11:37:32;;;;;;;25.17;11.38;;;;;;;;;;5059123;28;20040;-76
2022/12/02 11:40:03;;;;;;;24.40;12.07;;;;;;;;;;5058976;28;20328;-77
2022/12/02 11:42:31;;;;;;;21.98;11.05;;;;;;;;;;5059336;28;20037;-77
2022/12/02 11:45:14;;;;;;;27.27;12.05;;;;;;;;;;5058943;28;20032;-76
2022/12/02 11:47:44;;;;;;;22.33;10.93;;;;;;;;;;5058525;28;20029;-77
2022/12/02 11:50:15;;;;;;;26.05;11.88;;;;;;;;;;5058476;28;20407;-76
2022/12/02 11:52:44;;;;;;;25.30;11.57;;;;;;;;;;5058070;28;20148;-76
2022/12/02 11:55:22;;;;;;;24.33;12.10;;;;;;;;;;5059189;28;20032;-76
2022/12/02 11:57:54;;;;;;;23.25;11.38;;;;;;;;;;5058669;28;20051;-74
2022/12/02 12:00:26;;;;;;;25.67;10.52;;;;;;;;;;5058801;28;20029;-75
2022/12/02 12:03:09;;;;;;;23.85;10.55;;;;;;;;;;5058202;28;20033;-76
2022/12/02 12:05:35;;;;;;;25.20;10.68;;;;;;;;;;5057386;28;20028;-77
2022/12/02 12:08:00;;;;;;;22.48;10.93;;;;;;;;;;5058228;28;20430;-77
2022/12/02 12:10:33;;;;;;;25.40;10.80;;;;;;;;;;5058484;28;20025;-75
2022/12/02 12:13:13;;;;;;;22.70;11.18;;;;;;;;;;5058213;28;20057;-76
2022/12/02 12:15:50;;;;;;;23.27;10.55;;;;;;;;;;5058179;28;20033;-77
2022/12/02 12:18:47;;;;;;;21.73;11.13;;;;;;;;;;5058680;28;20091;-77
2022/12/02 12:21:30;;;;;;;20.17;10.35;;;;;;;;;;5058592;28;20029;-77
2022/12/02 12:24:18;;;;;;;25.00;10.85;;;;;;;;;;5058336;28;20033;-76
2022/12/02 12:27:05;;;;;;;26.80;10.77;;;;;;;;;;5058130;28;20032;-75
2022/12/02 12:29:32;;;;;;;23.88;10.82;;;;;;;;;;5037242;28;20040;-76
2022/12/02 12:31:58;;;;;;;20.65;10.68;;;;;;;;;;5058511;28;20092;-77
2022/12/02 12:34:23;;;;;;;23.52;10.50;;;;;;;;;;5057987;28;20102;-77
2022/12/02 12:36:49;;;;;;;23.42;10.63;;;;;;;;;;5058103;28;20194;-76
2022/12/02 12:39:15;;;;;;;24.17;11.05;;;;;;;;;;5058045;28;20044;-76
2022/12/02 12:41:41;;;;;;;23.85;11.23;;;;;;;;;;5058354;28;20067;-77
2022/12/02 12:44:06;;;;;;;20.42;10.88;;;;;;;;;;5058080;28;20102;-76
2022/12/02 12:46:32;;;;;;;21.25;10.35;;;;;;;;;;5057755;28;20025;-77
2022/12/02 12:48:58;;;;;;;23.90;10.88;;;;;;;;;;5056649;28;20224;-78
2022/12/02 12:51:24;;;;;;;21.38;10.65;;;;;;;;;;5057907;28;20266;-74
2022/12/02 12:53:50;;;;;;;22.88;10.82;;;;;;;;;;5057897;28;20116;-78
2022/12/02 12:56:15;;;;;;;22.10;11.15;;;;;;;;;;5057321;28;20313;-80
2022/12/02 12:58:41;;;;;;;25.30;10.82;;;;;;;;;;5058096;28;20073;-76
2022/12/02 13:01:06;;;;;;;24.08;11.02;;;;;;;;;;5058070;28;20045;-79
2022/12/02 13:03:32;;;;;;;24.58;10.82;;;;;;;;;;5057354;28;20032;-82
2022/12/02 13:05:59;;;;;;;23.25;11.00;;;;;;;;;;5057608;28;20096;-76
2022/12/02 13:08:24;;;;;;;22.85;10.73;;;;;;;;;;5058309;28;20032;-82
2022/12/02 13:10:50;;;;;;;23.65;10.68;;;;;;;;;;5058290;28;20024;-79
2022/12/02 13:13:15;;;;;;;22.80;11.27;;;;;;;;;;5057117;28;20044;-75
2022/12/02 13:15:41;;;;;;;22.75;11.13;;;;;;;;;;5057903;28;20029;-76
2022/12/02 13:18:06;;;;;;;21.52;10.82;;;;;;;;;;5057817;28;20096;-81
2022/12/02 13:20:32;;;;;;;22.73;10.55;;;;;;;;;;5057629;28;20033;-79
2022/12/02 13:22:57;;;;;;;25.10;10.93;;;;;;;;;;5058338;28;20297;-75
2022/12/02 13:25:23;;;;;;;24.70;12.25;;;;;;;;;;5056936;28;20361;-79
2022/12/02 13:27:49;;;;;;;27.23;12.05;;;;;;;;;;5057228;28;20036;-80
2022/12/02 13:30:18;;;;;;;28.98;13.10;;;;;;;;;;5056482;28;20309;-79
2022/12/02 13:32:43;;;;;;;21.77;11.32;;;;;;;;;;5058144;28;20024;-77
2022/12/02 13:35:10;;;;;;;22.67;11.27;;;;;;;;;;5055806;28;20198;-78
2022/12/02 13:37:36;;;;;;;22.08;11.35;;;;;;;;;;5055302;28;20037;-77
2022/12/02 13:40:03;;;;;;;25.15;12.35;;;;;;;;;;5057171;28;20025;-77
2022/12/02 13:42:28;;;;;;;22.23;10.70;;;;;;;;;;5057160;28;20036;-77
2022/12/02 13:44:54;;;;;;;23.50;10.52;;;;;;;;;;5056474;28;20066;-76
2022/12/02 13:47:19;;;;;;;21.15;10.23;;;;;;;;;;5045797;28;20049;-77
2022/12/02 13:49:45;;;;;;;25.58;10.05;;;;;;;;;;5036935;28;20109;-77
2022/12/02 13:52:11;;;;;;;20.88;10.57;;;;;;;;;;5035870;28;20069;-77
2022/12/02 13:54:36;;;;;;;25.63;11.00;;;;;;;;;;5034746;28;20074;-76
2022/12/02 13:57:03;;;;;;;25.13;11.30;;;;;;;;;;5036377;28;20053;-76
2022/12/02 13:59:28;;;;;;;21.98;10.80;;;;;;;;;;5036080;28;20093;-76
2022/12/02 14:01:53;;;;;;;24.85;11.27;;;;;;;;;;5035764;28;20037;-76
2022/12/02 14:04:19;;;;;;;23.20;11.68;;;;;;;;;;5045554;28;20101;-76
2022/12/02 14:06:44;;;;;;;22.35;10.98;;;;;;;;;;5056420;28;20029;-76
2022/12/02 14:09:10;;;;;;;23.58;11.52;;;;;;;;;;5056113;28;20029;-77
2022/12/02 14:11:35;;;;;;;22.35;10.75;;;;;;;;;;5057263;28;20260;-76
2022/12/02 14:14:00;;;;;;;25.08;12.00;;;;;;;;;;5057079;27;20035;-77
2022/12/02 14:16:26;;;;;;;23.67;11.77;;;;;;;;;;5057568;28;20029;-77
2022/12/02 14:18:51;;;;;;;27.23;12.40;;;;;;;;;;5055839;28;20032;-76
2022/12/02 14:21:17;;;;;;;23.15;11.55;;;;;;;;;;5055968;28;20029;-76
2022/12/02 14:23:42;;;;;;;22.33;11.27;;;;;;;;;;5055390;28;20025;-76
2022/12/02 14:26:08;;;;;;;23.95;11.32;;;;;;;;;;5054309;28;20078;-77
2022/12/02 14:28:33;;;;;;;20.92;11.70;;;;;;;;;;5055501;28;20070;-77
2022/12/02 14:30:59;;;;;;;23.83;11.02;;;;;;;;;;5055047;28;20032;-78
2022/12/02 14:33:24;;;;;;;21.38;10.95;;;;;;;;;;5055501;28;20040;-78